Time;durP1;ratioP1;P1;durP2;ratioP2;P2;SDS_P1;SDS_P2;PMS_P1;PMS_P2;Temp;Humidity;BMP_temperature;BMP_pressure;BME280_temperature;BME280_humidity;BME280_pressure;Samples;Min_cycle;Max_cycle;Signal;HPM_P1;HPM_P2
2022/11/23 00:04:21;;;;;;;;;;;;;;;;;;;;;
2022/11/23 00:06:55;;;;;;;13.02;4.97;;;;;;;;;;6284086;22;20357;-95
2022/11/23 00:09:24;;;;;;;14.30;5.60;;;;;;;;;;6280162;22;20049;-94
2022/11/23 00:11:54;;;;;;;15.38;5.13;;;;;;;;;;6280509;22;20008;-94
2022/11/23 00:14:40;;;;;;;12.27;5.45;;;;;;;;;;6280675;22;20004;-95
2022/11/23 00:17:21;;;;;;;15.77;5.25;;;;;;;;;;6279393;22;20011;-96
2022/11/23 00:19:59;;;;;;;;;;;;;;;;;;;;;
2022/11/23 00:22:38;;;;;;;16.95;6.25;;;;;;;;;;6300594;22;20067;-95
2022/11/23 00:25:17;;;;;;;13.13;5.47;;;;;;;;;;6276966;22;19999;-95
2022/11/23 00:27:46;;;;;;;14.20;5.28;;;;;;;;;;6272459;22;20003;-96
2022/11/23 00:30:35;;;;;;;14.10;5.43;;;;;;;;;;6279987;22;19995;-96
2022/11/23 00:33:15;;;;;;;14.88;5.18;;;;;;;;;;6279948;22;20007;-94
2022/11/23 00:35:44;;;;;;;14.55;5.70;;;;;;;;;;6278643;22;20037;-95
2022/11/23 00:38:12;;;;;;;15.30;5.88;;;;;;;;;;6278940;22;20006;-94
2022/11/23 00:40:47;;;;;;;14.63;5.97;;;;;;;;;;6279989;22;20000;-95
2022/11/23 00:43:15;;;;;;;15.52;5.97;;;;;;;;;;6278456;22;19991;-95
2022/11/23 00:45:42;;;;;;;16.15;6.30;;;;;;;;;;6278230;22;20048;-95
2022/11/23 00:51:15;;;;;;;16.25;6.55;;;;;;;;;;6284533;22;20011;-94
2022/11/23 00:53:46;;;;;;;17.52;6.63;;;;;;;;;;6278012;22;20007;-94
2022/11/23 00:56:37;;;;;;;17.73;7.03;;;;;;;;;;6278503;22;20007;-95
2022/11/23 00:59:35;;;;;;;15.63;6.47;;;;;;;;;;6278717;22;20034;-95
2022/11/23 01:02:04;;;;;;;18.58;7.18;;;;;;;;;;6278170;22;20034;-95
2022/11/23 01:04:35;;;;;;;19.00;6.53;;;;;;;;;;6241328;23;20012;-95
2022/11/23 01:07:13;;;;;;;17.52;6.70;;;;;;;;;;6211882;23;20016;-94
2022/11/23 01:10:15;;;;;;;;;;;;;;;;;;;;;
2022/11/23 01:13:01;;;;;;;17.08;6.80;;;;;;;;;;6234928;23;20104;-95
2022/11/23 01:15:47;;;;;;;18.17;6.70;;;;;;;;;;6241444;23;20458;-95
2022/11/23 01:18:29;;;;;;;18.38;6.63;;;;;;;;;;6241304;23;20004;-95
2022/11/23 01:21:06;;;;;;;20.83;8.00;;;;;;;;;;6216480;23;20012;-94
2022/11/23 01:23:50;;;;;;;17.67;7.82;;;;;;;;;;6211847;23;20009;-95
2022/11/23 01:26:18;;;;;;;17.73;7.50;;;;;;;;;;6184354;23;20028;-96
2022/11/23 01:28:44;;;;;;;16.95;7.38;;;;;;;;;;6185322;23;20042;-95
2022/11/23 01:31:21;;;;;;;18.85;7.90;;;;;;;;;;6186168;23;20016;-96
2022/11/23 01:34:29;;;;;;;19.02;8.38;;;;;;;;;;6187214;23;20016;-94
2022/11/23 01:40:50;;;;;;;21.83;7.85;;;;;;;;;;6260599;22;20070;-95
2022/11/23 01:43:25;;;;;;;23.17;7.32;;;;;;;;;;6269109;22;20008;-95
2022/11/23 01:46:14;;;;;;;19.60;7.70;;;;;;;;;;6271108;22;20022;-95
2022/11/23 01:49:02;;;;;;;16.73;7.45;;;;;;;;;;6271770;22;20006;-94
2022/11/23 01:51:37;;;;;;;17.17;7.30;;;;;;;;;;6271059;22;20027;-95
2022/11/23 01:54:22;;;;;;;17.77;7.25;;;;;;;;;;6271833;22;20447;-95
2022/11/23 01:57:09;;;;;;;15.93;6.57;;;;;;;;;;6246791;22;20494;-94
2022/11/23 02:02:49;;;;;;;16.98;7.45;;;;;;;;;;6306096;22;19991;-96
2022/11/23 02:05:28;;;;;;;18.08;7.30;;;;;;;;;;6279074;22;20024;-94
2022/11/23 02:08:07;;;;;;;16.67;7.15;;;;;;;;;;6281429;22;20026;-95
2022/11/23 02:10:46;;;;;;;17.77;7.00;;;;;;;;;;6279290;22;20050;-95
2022/11/23 02:13:21;;;;;;;19.23;7.75;;;;;;;;;;6260008;22;20368;-95
2022/11/23 02:15:56;;;;;;;17.95;7.20;;;;;;;;;;6250219;22;20007;-95
2022/11/23 02:18:33;;;;;;;18.02;7.15;;;;;;;;;;6248984;22;20000;-96
2022/11/23 02:21:05;;;;;;;21.23;7.88;;;;;;;;;;6276341;22;19996;-95
2022/11/23 02:23:59;;;;;;;20.73;8.27;;;;;;;;;;6250426;22;20030;-95
2022/11/23 02:26:29;;;;;;;;;;;;;;;;;;6276597;22;20029;-95
2022/11/23 02:29:01;;;;;;;22.15;8.98;;;;;;;;;;6275493;22;19899;-95
2022/11/23 02:31:27;;;;;;;22.08;8.30;;;;;;;;;;6247909;22;20010;-95
2022/11/23 02:34:17;;;;;;;24.00;9.70;;;;;;;;;;6249042;22;19999;-95
2022/11/23 02:37:03;;;;;;;25.08;10.65;;;;;;;;;;6248327;22;20016;-96
2022/11/23 02:39:49;;;;;;;27.38;10.45;;;;;;;;;;6248507;22;20002;-95
2022/11/23 02:45:33;;;;;;;26.58;10.10;;;;;;;;;;6276536;22;20437;-96
2022/11/23 02:51:00;;;;;;;25.58;10.63;;;;;;;;;;6278098;22;20053;-95
2022/11/23 02:53:33;;;;;;;25.92;10.40;;;;;;;;;;6213650;23;20401;-94
2022/11/23 02:56:17;;;;;;;26.33;11.50;;;;;;;;;;6186995;23;20001;-96
2022/11/23 02:59:01;;;;;;;25.98;11.07;;;;;;;;;;6152179;23;20071;-95
2022/11/23 03:12:02;;;;;;;25.05;10.98;;;;;;;;;;6244843;22;20024;-96
2022/11/23 03:14:40;;;;;;;29.02;10.20;;;;;;;;;;6275608;22;20008;-96
2022/11/23 03:17:35;;;;;;;22.95;10.38;;;;;;;;;;6261877;22;20008;-95
2022/11/23 03:23:37;;;;;;;;;;;;;;;;;;;;;
2022/11/23 03:26:39;;;;;;;;;;;;;;;;;;;;;
2022/11/23 03:29:43;;;;;;;14.27;6.88;;;;;;;;;;6226402;22;20074;-95
2022/11/23 03:32:39;;;;;;;16.73;7.47;;;;;;;;;;6277088;22;20015;-96
2022/11/23 03:38:26;;;;;;;18.73;8.02;;;;;;;;;;6297528;22;20049;-96
2022/11/23 03:41:37;;;;;;;;;;;;;;;;;;;;;
2022/11/23 03:47:15;;;;;;;19.60;8.55;;;;;;;;;;6307247;22;20083;-95
2022/11/23 03:49:53;;;;;;;20.58;8.40;;;;;;;;;;6275458;22;20518;-95
2022/11/23 03:52:25;;;;;;;20.55;8.75;;;;;;;;;;6273579;22;20003;-95
2022/11/23 03:54:55;;;;;;;23.38;9.65;;;;;;;;;;6281009;22;20073;-95
2022/11/23 04:01:07;;;;;;;26.75;11.63;;;;;;;;;;6278999;22;20064;-95
2022/11/23 04:04:17;;;;;;;;;;;;;;;;;;;;;
2022/11/23 04:07:01;;;;;;;23.40;9.68;;;;;;;;;;6181771;23;20084;-95
2022/11/23 04:09:47;;;;;;;23.80;8.82;;;;;;;;;;6162468;23;20084;-96
2022/11/23 04:12:18;;;;;;;20.42;9.57;;;;;;;;;;6197234;22;20099;-95
2022/11/23 04:15:08;;;;;;;20.98;8.82;;;;;;;;;;6276857;22;20019;-93
2022/11/23 04:17:51;;;;;;;20.60;9.20;;;;;;;;;;6278684;22;20015;-94
2022/11/23 04:20:29;;;;;;;;;;;;;;;;;;6279552;22;20022;-96
2022/11/23 04:23:06;;;;;;;19.30;7.93;;;;;;;;;;6282336;22;20308;-94
2022/11/23 04:25:35;;;;;;;21.08;9.10;;;;;;;;;;6310646;22;19998;-94
2022/11/23 04:28:18;;;;;;;19.83;8.55;;;;;;;;;;6309606;22;19999;-95
2022/11/23 04:30:47;;;;;;;20.77;9.27;;;;;;;;;;6309551;22;20010;-93
2022/11/23 04:33:24;;;;;;;18.88;8.02;;;;;;;;;;6310451;22;20013;-95
2022/11/23 04:35:59;;;;;;;23.08;10.52;;;;;;;;;;6312082;22;20003;-95
2022/11/23 04:38:34;;;;;;;28.88;12.38;;;;;;;;;;6311124;22;20081;-96
2022/11/23 04:41:12;;;;;;;26.13;11.57;;;;;;;;;;6311776;22;19998;-95
2022/11/23 04:43:50;;;;;;;28.55;10.50;;;;;;;;;;6311278;22;20025;-96
2022/11/23 04:46:21;;;;;;;31.95;11.10;;;;;;;;;;6311077;22;20007;-95
2022/11/23 04:48:58;;;;;;;33.45;10.85;;;;;;;;;;6310681;22;19999;-95
2022/11/23 04:51:28;;;;;;;33.15;11.27;;;;;;;;;;6311966;22;20018;-95
2022/11/23 04:53:55;;;;;;;40.75;11.05;;;;;;;;;;6312180;22;20011;-94
2022/11/23 04:56:23;;;;;;;50.88;11.27;;;;;;;;;;6311626;22;20070;-96
2022/11/23 04:58:51;;;;;;;42.35;10.13;;;;;;;;;;6311196;22;20026;-95
2022/11/23 05:01:52;;;;;;;46.13;10.90;;;;;;;;;;6309685;22;20006;-96
2022/11/23 05:04:21;;;;;;;23.70;9.02;;;;;;;;;;6311222;22;20090;-95
2022/11/23 05:09:57;;;;;;;36.65;10.23;;;;;;;;;;6316118;22;20079;-96
2022/11/23 05:12:28;;;;;;;56.40;10.38;;;;;;;;;;6310593;22;20023;-96
2022/11/23 05:15:00;;;;;;;24.35;9.93;;;;;;;;;;6310199;22;20042;-96
2022/11/23 05:17:32;;;;;;;20.60;8.10;;;;;;;;;;6311524;22;20007;-94
2022/11/23 05:20:26;;;;;;;22.52;8.30;;;;;;;;;;6309544;22;20022;-96
2022/11/23 05:23:29;;;;;;;30.88;9.23;;;;;;;;;;6312092;22;20072;-96
2022/11/23 05:25:58;;;;;;;300.70;25.60;;;;;;;;;;6211628;23;20005;-95
2022/11/23 05:28:29;;;;;;;408.73;28.48;;;;;;;;;;6186665;23;20009;-95
2022/11/23 05:31:10;;;;;;;213.93;17.85;;;;;;;;;;6186691;23;20168;-96
2022/11/23 05:33:44;;;;;;;136.30;14.80;;;;;;;;;;6188573;23;20434;-94
2022/11/23 05:39:10;;;;;;;459.85;36.13;;;;;;;;;;6182357;23;20441;-95
2022/11/23 05:42:06;;;;;;;420.42;31.92;;;;;;;;;;6187132;23;20005;-96
2022/11/23 05:44:42;;;;;;;;;;;;;;;;;;;;;
2022/11/23 05:47:28;;;;;;;314.67;26.92;;;;;;;;;;6206348;23;20075;-95
2022/11/23 05:50:38;;;;;;;;;;;;;;;;;;;;;
2022/11/23 05:53:09;;;;;;;448.27;32.83;;;;;;;;;;6207635;23;20115;-95
2022/11/23 05:55:37;;;;;;;328.58;30.00;;;;;;;;;;6187604;23;20017;-95
2022/11/23 05:58:44;;;;;;;338.60;27.88;;;;;;;;;;6187204;23;20012;-95
2022/11/23 06:01:09;;;;;;;179.00;17.95;;;;;;;;;;6234125;22;20118;-96
2022/11/23 06:04:15;;;;;;;29.05;10.77;;;;;;;;;;6311724;22;19999;-95
2022/11/23 06:09:41;;;;;;;339.75;30.15;;;;;;;;;;6212317;23;20830;-94
2022/11/23 06:12:11;;;;;;;329.63;28.10;;;;;;;;;;6186763;23;20001;-95
2022/11/23 06:14:57;;;;;;;463.27;32.90;;;;;;;;;;6159449;23;20020;-95
2022/11/23 06:17:34;;;;;;;411.42;31.25;;;;;;;;;;6156397;23;20012;-96
2022/11/23 06:20:16;;;;;;;451.08;36.03;;;;;;;;;;6155617;23;19993;-96
2022/11/23 06:23:02;;;;;;;84.18;14.35;;;;;;;;;;6158792;23;19993;-95
2022/11/23 06:25:37;;;;;;;105.55;15.25;;;;;;;;;;6184471;23;20000;-96
2022/11/23 06:28:12;;;;;;;97.03;14.50;;;;;;;;;;6158137;23;20008;-95
2022/11/23 06:30:39;;;;;;;227.32;23.83;;;;;;;;;;6158443;23;20016;-96
2022/11/23 06:33:14;;;;;;;;;;;;;;;;;;;;;
2022/11/23 06:36:33;;;;;;;43.83;10.95;;;;;;;;;;6109118;23;20088;-95
2022/11/23 06:42:12;;;;;;;45.10;10.43;;;;;;;;;;6124853;23;20079;-95
2022/11/23 06:45:17;;;;;;;25.15;9.25;;;;;;;;;;6123953;23;20085;-95
2022/11/23 06:48:05;;;;;;;26.20;9.13;;;;;;;;;;6120427;23;20010;-95
2022/11/23 06:50:50;;;;;;;30.63;9.50;;;;;;;;;;6100136;23;20002;-96
2022/11/23 06:56:58;;;;;;;28.75;9.68;;;;;;;;;;6125262;23;20025;-94
2022/11/23 07:06:21;;;;;;;28.55;8.38;;;;;;;;;;6095054;23;20057;-95
2022/11/23 07:08:49;;;;;;;23.15;8.23;;;;;;;;;;6087198;23;20053;-95
2022/11/23 07:11:23;;;;;;;22.95;8.02;;;;;;;;;;6162751;23;20001;-94
2022/11/23 07:13:52;;;;;;;19.70;7.63;;;;;;;;;;6218119;23;20012;-95
2022/11/23 07:16:26;;;;;;;20.40;7.70;;;;;;;;;;6217850;23;20002;-95
2022/11/23 07:19:02;;;;;;;23.17;7.88;;;;;;;;;;6217937;23;20437;-95
2022/11/23 07:22:04;;;;;;;21.10;7.57;;;;;;;;;;6221447;23;20633;-96
2022/11/23 07:27:42;;;;;;;25.35;7.03;;;;;;;;;;6252164;23;20043;-96
2022/11/23 07:30:39;;;;;;;18.80;6.70;;;;;;;;;;6227251;23;20004;-96
2022/11/23 07:33:12;;;;;;;21.08;6.05;;;;;;;;;;6225190;23;20003;-94
2022/11/23 07:35:47;;;;;;;20.85;5.32;;;;;;;;;;6214336;23;20012;-94
2022/11/23 07:38:12;;;;;;;18.52;5.85;;;;;;;;;;6210309;23;20008;-95
2022/11/23 07:40:41;;;;;;;20.33;6.13;;;;;;;;;;6212343;23;20035;-94
2022/11/23 07:43:06;;;;;;;19.70;5.63;;;;;;;;;;6233970;22;19999;-94
2022/11/23 07:45:37;;;;;;;14.98;5.00;;;;;;;;;;6275631;22;20006;-93
2022/11/23 07:48:08;;;;;;;20.17;4.97;;;;;;;;;;6276341;22;20286;-94
2022/11/23 07:50:36;;;;;;;16.02;4.85;;;;;;;;;;6274752;22;20093;-93
2022/11/23 07:53:05;;;;;;;19.70;5.38;;;;;;;;;;6276423;22;19999;-93
2022/11/23 07:55:40;;;;;;;14.75;4.03;;;;;;;;;;6275353;22;20025;-93
2022/11/23 07:58:05;;;;;;;13.48;3.85;;;;;;;;;;6277073;22;20010;-93
2022/11/23 08:00:38;;;;;;;13.10;3.65;;;;;;;;;;6276092;22;20007;-92
2022/11/23 08:03:04;;;;;;;9.15;3.13;;;;;;;;;;6276301;22;20423;-93
2022/11/23 08:05:35;;;;;;;14.55;3.88;;;;;;;;;;6277010;22;19999;-93
2022/11/23 08:08:01;;;;;;;14.48;3.95;;;;;;;;;;6304278;22;20003;-92
2022/11/23 08:10:30;;;;;;;13.35;3.45;;;;;;;;;;6303412;22;20078;-93
2022/11/23 08:12:56;;;;;;;11.27;3.35;;;;;;;;;;6269227;22;20008;-95
2022/11/23 08:15:29;;;;;;;13.38;3.83;;;;;;;;;;6271279;22;20015;-94
2022/11/23 08:17:55;;;;;;;11.45;3.03;;;;;;;;;;6245134;22;20007;-94
2022/11/23 08:20:22;;;;;;;13.75;3.53;;;;;;;;;;6272054;22;20007;-92
2022/11/23 08:22:47;;;;;;;9.95;3.25;;;;;;;;;;6245335;22;20004;-94
2022/11/23 08:25:16;;;;;;;10.52;3.30;;;;;;;;;;6245246;22;20358;-94
2022/11/23 08:27:41;;;;;;;8.40;2.78;;;;;;;;;;6245720;22;20007;-93
2022/11/23 08:30:12;;;;;;;10.50;2.95;;;;;;;;;;6246522;22;20044;-94
2022/11/23 08:32:45;;;;;;;8.18;2.90;;;;;;;;;;6244923;22;20030;-94
2022/11/23 08:35:13;;;;;;;10.45;3.05;;;;;;;;;;6245774;22;19999;-93
2022/11/23 08:37:40;;;;;;;10.65;2.72;;;;;;;;;;6247366;22;20019;-93
2022/11/23 08:40:16;;;;;;;7.90;2.88;;;;;;;;;;6274137;22;20425;-94
2022/11/23 08:42:41;;;;;;;7.97;2.78;;;;;;;;;;6247601;22;19998;-93
2022/11/23 08:45:10;;;;;;;7.60;2.60;;;;;;;;;;6274496;22;20004;-93
2022/11/23 08:47:35;;;;;;;11.73;2.70;;;;;;;;;;6246037;22;20019;-94
2022/11/23 08:50:03;;;;;;;10.77;2.75;;;;;;;;;;6247490;22;20026;-94
2022/11/23 08:52:34;;;;;;;11.40;2.90;;;;;;;;;;6247511;22;20440;-93
2022/11/23 08:55:07;;;;;;;8.70;2.55;;;;;;;;;;6246373;22;19999;-93
2022/11/23 08:57:33;;;;;;;7.00;2.25;;;;;;;;;;6246034;22;19999;-94
2022/11/23 09:00:00;;;;;;;6.15;1.70;;;;;;;;;;6248164;22;20000;-95
2022/11/23 09:02:25;;;;;;;7.60;1.85;;;;;;;;;;6277568;22;20039;-93
2022/11/23 09:04:50;;;;;;;6.47;1.52;;;;;;;;;;6311265;22;19999;-93
2022/11/23 09:07:18;;;;;;;5.65;1.52;;;;;;;;;;6343654;22;20011;-92
2022/11/23 09:09:43;;;;;;;7.05;1.60;;;;;;;;;;6314906;22;20006;-92
2022/11/23 09:12:27;;;;;;;5.38;1.50;;;;;;;;;;6343146;22;20481;-93
2022/11/23 09:14:52;;;;;;;8.73;1.60;;;;;;;;;;6312311;22;20030;-93
2022/11/23 09:17:21;;;;;;;5.28;1.23;;;;;;;;;;6311958;22;20003;-93
2022/11/23 09:19:49;;;;;;;5.63;1.40;;;;;;;;;;6307872;22;20003;-92
2022/11/23 09:22:14;;;;;;;3.83;0.90;;;;;;;;;;6303170;22;20007;-92
2022/11/23 09:24:39;;;;;;;3.63;0.85;;;;;;;;;;6332667;22;20029;-93
2022/11/23 09:27:05;;;;;;;2.00;0.57;;;;;;;;;;6333129;22;19999;-93
2022/11/23 09:29:30;;;;;;;3.13;0.80;;;;;;;;;;6305242;22;20716;-93
2022/11/23 09:31:55;;;;;;;4.72;0.60;;;;;;;;;;6333204;22;20016;-93
2022/11/23 09:34:21;;;;;;;3.28;0.60;;;;;;;;;;6305475;22;20481;-94
2022/11/23 09:36:47;;;;;;;4.25;0.80;;;;;;;;;;6330473;22;20010;-93
2022/11/23 09:39:12;;;;;;;2.58;0.70;;;;;;;;;;6305213;22;20003;-93
2022/11/23 09:41:41;;;;;;;4.65;1.10;;;;;;;;;;6306095;22;20003;-92
2022/11/23 09:44:42;;;;;;;4.70;1.13;;;;;;;;;;6306340;22;20026;-94
2022/11/23 09:47:13;;;;;;;9.45;1.88;;;;;;;;;;6204961;23;20475;-91
2022/11/23 09:49:41;;;;;;;5.90;1.30;;;;;;;;;;6202502;23;20007;-91
2022/11/23 09:52:14;;;;;;;5.13;1.10;;;;;;;;;;6203281;23;20111;-91
2022/11/23 09:54:40;;;;;;;8.70;1.73;;;;;;;;;;6176044;23;20311;-91
2022/11/23 09:57:06;;;;;;;8.93;1.63;;;;;;;;;;6177223;23;20000;-91
2022/11/23 09:59:38;;;;;;;6.30;1.63;;;;;;;;;;6178825;23;20146;-92
2022/11/23 10:02:03;;;;;;;5.57;1.80;;;;;;;;;;6178116;23;20023;-91
2022/11/23 10:04:32;;;;;;;8.43;2.30;;;;;;;;;;6179469;23;20000;-91
2022/11/23 10:07:02;;;;;;;6.55;1.90;;;;;;;;;;6178805;23;20001;-90
2022/11/23 10:09:30;;;;;;;6.03;1.80;;;;;;;;;;6177826;23;20003;-91
2022/11/23 10:11:59;;;;;;;7.35;2.15;;;;;;;;;;6204142;23;20008;-90
2022/11/23 10:14:37;;;;;;;18.38;2.67;;;;;;;;;;6204583;23;20051;-91
2022/11/23 10:17:08;;;;;;;5.90;1.67;;;;;;;;;;6179503;23;20040;-92
2022/11/23 10:19:36;;;;;;;6.40;1.80;;;;;;;;;;6203164;23;20001;-91
2022/11/23 10:22:11;;;;;;;6.80;1.90;;;;;;;;;;6285973;22;20000;-94
2022/11/23 10:24:43;;;;;;;5.63;1.83;;;;;;;;;;6295429;22;20025;-94
2022/11/23 10:27:19;;;;;;;5.78;1.65;;;;;;;;;;6296860;22;19999;-92
2022/11/23 10:29:45;;;;;;;6.18;1.60;;;;;;;;;;6300697;22;20003;-93
2022/11/23 10:32:37;;;;;;;5.78;1.52;;;;;;;;;;6302168;22;19995;-90
2022/11/23 10:35:13;;;;;;;5.00;1.50;;;;;;;;;;6295623;22;20022;-90
2022/11/23 10:37:39;;;;;;;6.63;1.60;;;;;;;;;;6300446;22;20445;-93
2022/11/23 10:40:17;;;;;;;6.82;1.70;;;;;;;;;;6301357;22;20036;-92
2022/11/23 10:42:44;;;;;;;9.27;1.60;;;;;;;;;;6301274;22;20040;-90
2022/11/23 10:45:27;;;;;;;6.25;1.50;;;;;;;;;;6303047;22;20425;-92
2022/11/23 10:47:54;;;;;;;6.00;1.60;;;;;;;;;;6301030;22;20007;-92
2022/11/23 10:50:36;;;;;;;8.45;1.42;;;;;;;;;;6304645;22;20010;-93
2022/11/23 10:53:14;;;;;;;;;;;;;;;;;;;;;
2022/11/23 10:56:00;;;;;;;8.63;1.40;;;;;;;;;;6303176;22;20086;-92
2022/11/23 10:58:27;;;;;;;7.82;1.52;;;;;;;;;;6301565;22;20000;-93
2022/11/23 11:00:59;;;;;;;7.25;2.03;;;;;;;;;;6303371;22;19995;-92
2022/11/23 11:03:25;;;;;;;5.60;1.60;;;;;;;;;;6304280;22;20011;-93
2022/11/23 11:05:50;;;;;;;9.38;2.10;;;;;;;;;;6303534;22;19994;-93
2022/11/23 11:08:17;;;;;;;7.80;1.80;;;;;;;;;;6302291;22;20014;-92
2022/11/23 11:10:48;;;;;;;12.05;1.92;;;;;;;;;;6301328;22;20332;-92
2022/11/23 11:13:30;;;;;;;10.57;1.58;;;;;;;;;;6303908;22;20007;-93
2022/11/23 11:16:03;;;;;;;9.65;1.30;;;;;;;;;;6301625;22;20011;-91
2022/11/23 11:18:33;;;;;;;9.85;1.48;;;;;;;;;;6303977;22;20007;-92
2022/11/23 11:21:19;;;;;;;12.50;1.67;;;;;;;;;;6301480;22;20002;-92
2022/11/23 11:23:56;;;;;;;7.68;2.53;;;;;;;;;;6300896;22;20011;-93
2022/11/23 11:26:23;;;;;;;11.73;1.40;;;;;;;;;;6300920;22;20506;-92
2022/11/23 11:28:50;;;;;;;10.00;1.60;;;;;;;;;;6301006;22;20011;-92
2022/11/23 11:31:28;;;;;;;9.60;1.60;;;;;;;;;;6301870;22;20054;-92
2022/11/23 11:33:53;;;;;;;6.20;1.20;;;;;;;;;;6301246;22;20011;-91
2022/11/23 11:36:19;;;;;;;8.80;1.70;;;;;;;;;;6302908;22;20001;-92
2022/11/23 11:38:47;;;;;;;10.48;2.05;;;;;;;;;;6300936;22;20007;-92
2022/11/23 11:41:13;;;;;;;12.35;1.92;;;;;;;;;;6301581;22;19999;-92
2022/11/23 11:43:44;;;;;;;10.63;1.58;;;;;;;;;;6300960;22;20007;-93
2022/11/23 11:46:13;;;;;;;12.13;1.88;;;;;;;;;;6299845;22;20011;-91
2022/11/23 11:48:50;;;;;;;17.02;2.00;;;;;;;;;;6300568;22;20446;-94
2022/11/23 11:51:45;;;;;;;9.82;1.80;;;;;;;;;;6304425;22;20064;-90
2022/11/23 11:54:17;;;;;;;12.50;1.52;;;;;;;;;;6273592;22;20022;-91
2022/11/23 11:56:45;;;;;;;14.13;1.60;;;;;;;;;;6300929;22;20309;-93
2022/11/23 11:59:10;;;;;;;10.18;1.60;;;;;;;;;;6302661;22;20482;-92
2022/11/23 12:01:39;;;;;;;10.32;1.33;;;;;;;;;;6301986;22;20012;-93
2022/11/23 12:04:26;;;;;;;14.95;1.60;;;;;;;;;;6302157;22;20421;-92
2022/11/23 12:07:18;;;;;;;14.73;2.10;;;;;;;;;;6302261;22;20015;-94
2022/11/23 12:09:45;;;;;;;11.77;1.77;;;;;;;;;;6255392;22;20038;-91
2022/11/23 12:12:15;;;;;;;13.45;1.70;;;;;;;;;;6301511;22;20091;-94
2022/11/23 12:14:41;;;;;;;15.60;2.33;;;;;;;;;;6302339;22;20030;-92
2022/11/23 12:17:30;;;;;;;14.20;1.92;;;;;;;;;;6301528;22;20070;-92
2022/11/23 12:20:10;;;;;;;17.63;1.85;;;;;;;;;;6183562;23;19997;-95
2022/11/23 12:22:54;;;;;;;15.10;2.28;;;;;;;;;;6185799;23;20008;-92
2022/11/23 12:25:45;;;;;;;12.88;1.65;;;;;;;;;;6211567;23;20004;-96
2022/11/23 12:28:26;;;;;;;10.40;1.85;;;;;;;;;;6212017;23;20008;-96
2022/11/23 12:31:20;;;;;;;11.98;1.98;;;;;;;;;;6213437;23;20017;-93
2022/11/23 12:34:04;;;;;;;17.00;2.20;;;;;;;;;;6186778;23;20005;-94
2022/11/23 12:37:00;;;;;;;11.40;1.88;;;;;;;;;;6211867;23;20015;-94
2022/11/23 12:39:48;;;;;;;15.43;1.75;;;;;;;;;;6211926;23;20035;-96
2022/11/23 12:42:34;;;;;;;12.13;1.70;;;;;;;;;;6209106;23;20517;-94
2022/11/23 12:45:21;;;;;;;8.85;1.65;;;;;;;;;;6186228;23;19996;-95
2022/11/23 12:48:19;;;;;;;;;;;;;;;;;;;;;
2022/11/23 12:54:40;;;;;;;11.38;1.55;;;;;;;;;;6213304;23;20007;-94
2022/11/23 12:57:34;;;;;;;9.85;1.75;;;;;;;;;;6262871;22;20101;-93
2022/11/23 12:59:59;;;;;;;;;;;;;;;;;;6261168;22;20018;-95
2022/11/23 13:02:47;;;;;;;12.82;1.55;;;;;;;;;;6319610;22;19983;-94
2022/11/23 13:05:31;;;;;;;10.63;1.30;;;;;;;;;;6306093;22;20002;-95
2022/11/23 13:08:14;;;;;;;12.98;1.95;;;;;;;;;;6305070;22;20007;-95
2022/11/23 13:11:08;;;;;;;10.27;1.52;;;;;;;;;;6306076;22;19999;-95
2022/11/23 13:17:34;;;;;;;11.40;2.10;;;;;;;;;;6307082;22;20038;-95
2022/11/23 13:19:41;;;;;;;9.32;1.73;;;;;;;;;;6203002;23;20013;-94
2022/11/23 13:22:38;;;;;;;13.77;2.08;;;;;;;;;;6187750;23;20003;-95
2022/11/23 13:25:41;;;;;;;15.27;1.60;;;;;;;;;;6213120;23;20450;-94
2022/11/23 13:28:30;;;;;;;13.57;1.67;;;;;;;;;;6152193;23;20005;-95
2022/11/23 13:31:25;;;;;;;16.85;1.88;;;;;;;;;;6128178;23;20562;-96
2022/11/23 13:34:10;;;;;;;10.95;1.77;;;;;;;;;;6069224;23;20007;-96
2022/11/23 13:36:55;;;;;;;13.10;1.83;;;;;;;;;;6093526;23;20002;-96
2022/11/23 13:39:41;;;;;;;10.30;1.50;;;;;;;;;;6068802;23;20113;-94
2022/11/23 13:42:11;;;;;;;8.68;1.58;;;;;;;;;;6070159;23;20007;-95
2022/11/23 13:44:39;;;;;;;11.48;1.75;;;;;;;;;;6094550;23;20006;-95
2022/11/23 13:47:14;;;;;;;12.75;1.77;;;;;;;;;;6093742;23;20070;-95
2022/11/23 13:49:41;;;;;;;14.15;1.85;;;;;;;;;;6070592;23;20003;-94
2022/11/23 13:52:26;;;;;;;10.88;2.25;;;;;;;;;;6094369;23;20007;-95
2022/11/23 13:55:11;;;;;;;9.88;1.58;;;;;;;;;;6093014;23;20002;-93
2022/11/23 13:57:42;;;;;;;10.10;1.80;;;;;;;;;;6112681;23;20040;-94
2022/11/23 14:00:33;;;;;;;12.18;1.40;;;;;;;;;;6211682;23;20005;-94
2022/11/23 14:03:19;;;;;;;9.43;1.30;;;;;;;;;;6191860;23;20012;-96
2022/11/23 14:05:50;;;;;;;9.63;1.40;;;;;;;;;;6186736;23;20127;-94
2022/11/23 14:08:22;;;;;;;9.90;1.20;;;;;;;;;;6187326;23;20001;-95
2022/11/23 14:10:55;;;;;;;11.30;1.60;;;;;;;;;;6234517;22;20046;-95
2022/11/23 14:13:24;;;;;;;9.57;1.30;;;;;;;;;;6280140;22;20038;-95
2022/11/23 14:16:01;;;;;;;9.93;1.42;;;;;;;;;;6278306;22;20038;-95
2022/11/23 14:18:36;;;;;;;5.55;0.77;;;;;;;;;;6276174;22;20043;-96
2022/11/23 14:21:05;;;;;;;5.30;0.65;;;;;;;;;;6273890;22;20007;-89
2022/11/23 14:23:46;;;;;;;6.40;0.88;;;;;;;;;;6268341;22;20007;-94
2022/11/23 14:26:18;;;;;;;7.47;1.00;;;;;;;;;;6277199;22;20000;-96
2022/11/23 14:28:43;;;;;;;5.30;0.50;;;;;;;;;;6276114;22;20012;-94
2022/11/23 14:31:11;;;;;;;12.55;1.67;;;;;;;;;;6278547;22;20034;-94
2022/11/23 14:33:47;;;;;;;10.88;1.10;;;;;;;;;;6280686;22;20006;-95
2022/11/23 14:36:12;;;;;;;7.18;0.98;;;;;;;;;;6275055;22;20008;-94
2022/11/23 14:38:40;;;;;;;8.18;1.05;;;;;;;;;;6276133;22;20030;-93
2022/11/23 14:41:18;;;;;;;7.57;0.80;;;;;;;;;;6274799;22;20011;-94
2022/11/23 14:43:44;;;;;;;6.00;1.10;;;;;;;;;;6273806;22;20082;-93
2022/11/23 14:46:23;;;;;;;5.55;1.50;;;;;;;;;;6274610;22;20010;-93
2022/11/23 14:48:54;;;;;;;9.50;1.35;;;;;;;;;;6271665;22;20456;-94
2022/11/23 14:51:22;;;;;;;12.23;1.45;;;;;;;;;;6270476;22;20007;-94
2022/11/23 14:53:49;;;;;;;6.95;0.90;;;;;;;;;;6270297;22;20027;-95
2022/11/23 14:56:35;;;;;;;9.32;1.10;;;;;;;;;;6274331;22;20067;-94
2022/11/23 14:59:20;;;;;;;9.45;1.33;;;;;;;;;;6254265;22;20099;-95
2022/11/23 15:01:47;;;;;;;10.07;1.35;;;;;;;;;;6259158;22;20023;-94
2022/11/23 15:04:23;;;;;;;5.55;1.10;;;;;;;;;;6307032;22;20301;-94
2022/11/23 15:06:51;;;;;;;11.30;0.93;;;;;;;;;;6308438;22;20025;-95
2022/11/23 15:09:23;;;;;;;8.93;1.30;;;;;;;;;;6305989;22;20006;-94
2022/11/23 15:11:49;;;;;;;10.05;1.15;;;;;;;;;;6306496;22;19995;-95
2022/11/23 15:14:19;;;;;;;6.75;0.80;;;;;;;;;;6306161;22;20007;-94
2022/11/23 15:16:46;;;;;;;5.90;0.95;;;;;;;;;;6307076;22;20018;-95
2022/11/23 15:19:18;;;;;;;9.50;1.13;;;;;;;;;;6307859;22;20061;-95
2022/11/23 15:21:43;;;;;;;4.32;0.70;;;;;;;;;;6306393;22;20011;-94
2022/11/23 15:24:22;;;;;;;7.63;1.00;;;;;;;;;;6305540;22;19999;-95
2022/11/23 15:26:48;;;;;;;9.38;1.52;;;;;;;;;;6306742;22;20002;-95
2022/11/23 15:29:34;;;;;;;4.72;0.98;;;;;;;;;;6307251;22;20003;-95
2022/11/23 15:32:00;;;;;;;4.72;1.00;;;;;;;;;;6306476;22;20392;-95
2022/11/23 15:34:25;;;;;;;8.95;1.40;;;;;;;;;;6306566;22;20007;-95
2022/11/23 15:36:51;;;;;;;4.60;0.88;;;;;;;;;;6308404;22;20011;-95
2022/11/23 15:39:22;;;;;;;9.10;1.10;;;;;;;;;;6307344;22;20003;-95
2022/11/23 15:41:48;;;;;;;4.05;0.68;;;;;;;;;;6307744;22;20003;-95
2022/11/23 15:44:23;;;;;;;6.72;0.95;;;;;;;;;;6307476;22;20421;-93
2022/11/23 15:47:13;;;;;;;5.22;0.70;;;;;;;;;;6309478;22;19992;-94
2022/11/23 15:49:39;;;;;;;6.20;0.60;;;;;;;;;;6308670;22;19992;-94
2022/11/23 15:52:08;;;;;;;4.93;0.70;;;;;;;;;;6306893;22;20326;-95
2022/11/23 15:54:35;;;;;;;5.40;1.23;;;;;;;;;;6306771;22;20498;-95
2022/11/23 15:57:05;;;;;;;6.72;1.08;;;;;;;;;;6308492;22;19995;-95
2022/11/23 15:59:35;;;;;;;4.38;0.80;;;;;;;;;;6308827;22;20010;-95
2022/11/23 16:02:04;;;;;;;6.13;1.20;;;;;;;;;;6307359;22;20014;-95
2022/11/23 16:04:46;;;;;;;5.05;0.80;;;;;;;;;;6309202;22;19992;-95
2022/11/23 16:07:14;;;;;;;5.75;0.80;;;;;;;;;;6310162;22;19995;-95
2022/11/23 16:09:46;;;;;;;4.25;1.02;;;;;;;;;;6308156;22;20003;-95
2022/11/23 16:12:22;;;;;;;5.38;0.80;;;;;;;;;;6307659;22;20074;-95
2022/11/23 16:14:51;;;;;;;7.85;1.08;;;;;;;;;;6307380;22;20374;-95
2022/11/23 16:17:24;;;;;;;6.72;1.33;;;;;;;;;;6306835;22;20378;-94
2022/11/23 16:19:52;;;;;;;2.78;0.63;;;;;;;;;;6307399;22;20034;-95
2022/11/23 16:22:29;;;;;;;6.40;0.95;;;;;;;;;;6307470;22;19995;-95
2022/11/23 16:25:06;;;;;;;3.83;0.93;;;;;;;;;;6312675;22;20007;-96
2022/11/23 16:28:00;;;;;;;6.53;0.98;;;;;;;;;;6312246;22;20133;-95
2022/11/23 16:30:36;;;;;;;7.05;1.00;;;;;;;;;;6305401;22;20003;-95
2022/11/23 16:33:04;;;;;;;7.35;0.95;;;;;;;;;;6308609;22;20072;-96
2022/11/23 16:35:35;;;;;;;5.53;1.00;;;;;;;;;;6308875;22;20010;-95
2022/11/23 16:38:01;;;;;;;9.02;1.27;;;;;;;;;;6308207;22;20003;-95
2022/11/23 16:40:39;;;;;;;9.00;1.55;;;;;;;;;;6308483;22;20049;-95
2022/11/23 16:43:19;;;;;;;6.30;1.25;;;;;;;;;;6308539;22;20007;-96
2022/11/23 16:45:47;;;;;;;10.57;1.50;;;;;;;;;;6309523;22;20006;-95
2022/11/23 16:48:21;;;;;;;8.15;1.30;;;;;;;;;;6307895;22;19995;-96
2022/11/23 16:50:47;;;;;;;9.93;1.90;;;;;;;;;;6307877;22;19999;-96
2022/11/23 16:53:34;;;;;;;11.48;1.55;;;;;;;;;;6307731;22;20080;-96